Flight Track Log - Related Links

Times and Time Zones

All times are in EDT time to prevent confusion due to time zone crossing. See the PDT4155 flight status page for this flight to view local times or setup timezone preferences in your user account.

Time Position Orientation Groundspeed Altitude Reporting Facility
EDT Latitude Longitude Course Direction KTS MPH feet Rate Location/Type
Mon 07:19:00 AM 42.0001 -75.9115 180° South  Level Estimated
Mon 07:20:00 AM 41.9288 -75.9177 184° South  Level FlightAware Approximate
Mon 07:21:00 AM 41.8595 -75.8942 154° Southeast  Level Estimated
Mon 07:22:00 AM 41.7902 -75.8707 160° South  Level Estimated
Mon 07:23:00 AM 41.7209 -75.8473 159° South  Level Estimated
Mon 07:24:00 AM 41.6504 -75.8322 171° South  Level FlightAware Approximate
Mon 07:25:00 AM 41.5811 -75.8085 153° Southeast  Level Estimated
Mon 07:26:00 AM 41.5119 -75.7849 161° South  Level Estimated
Mon 07:27:00 AM 41.4436 -75.7566 163° South  Level FlightAware Approximate
Mon 07:28:00 AM 41.3744 -75.7333 162° South  Level Estimated
Mon 07:29:00 AM 41.3066 -75.7030 161° South  Level FlightAware Approximate
Mon 07:30:00 AM 41.2389 -75.6728 161° South  Level FlightAware Approximate
Mon 07:31:00 AM 41.1711 -75.6426 161° South  Level FlightAware Approximate
Mon 07:32:00 AM 41.1016 -75.6207 159° South  Level Estimated
Mon 07:33:00 AM 41.0320 -75.5988 163° South  Level Estimated
Mon 07:34:00 AM 40.9647 -75.5669 160° South  Level FlightAware Approximate
Mon 07:35:00 AM 40.8974 -75.5351 160° South  Level FlightAware Approximate
Mon 07:36:00 AM 40.8277 -75.5148 190° South  Level Estimated
Mon 07:37:00 AM 40.7562 -75.5116 178° South  Level FlightAware Approximate
Mon 07:38:00 AM 40.6848 -75.5083 178° South  Level FlightAware Approximate
Mon 07:39:00 AM 40.6155 -75.4853 187° South  Level Estimated
Mon 07:40:00 AM 40.5445 -75.4956 186° South  Level FlightAware Approximate
Mon 07:41:00 AM 40.4759 -75.4694 190° South  Level Estimated
Mon 07:42:00 AM 40.4069 -75.4940 195° South  Level FlightAware Approximate
Mon 07:43:00 AM 40.3398 -75.4620 180° South  Level Estimated
Mon 07:44:00 AM 40.2726 -75.4300 143° Southeast  Level Estimated
Mon 07:45:00 AM 40.2054 -75.3981 143° Southeast  Level Estimated
Mon 07:46:00 AM 40.1382 -75.3663 143° Southeast  Level Estimated
Mon 07:47:00 AM 40.0710 -75.3345 123° Southeast  Level Estimated
Mon 07:48:00 AM 40.0038 -75.3028 90° East  Level Estimated
Mon 07:48:21 AM 40.6333 -75.4833 150° Southeast 230 265 7,000  Level Philadelphia TRACON
Mon 07:49:00 AM 39.9366 -75.2711 150° Southeast  Level Estimated
Mon 07:49:15 AM 40.5833 -75.4833 180° South 232 267 5,900  Level Philadelphia TRACON
Mon 07:50:00 AM 39.8722 -75.2409 150° Southeast  Level Estimated
Mon 07:50:15 AM 40.5167 -75.4833 180° South 211 243 5,000  Level Philadelphia TRACON
Mon 07:51:00 AM 39.8722 -75.2409 150° Southeast  Level Estimated
Mon 07:51:15 AM 40.4667 -75.4667 166° South 201 231 5,000  Level Philadelphia TRACON
Mon 07:52:00 AM 39.8722 -75.2409 150° Southeast  Level Estimated
Mon 07:52:16 AM 40.4167 -75.4667 180° South 200 230 5,000  Level Philadelphia TRACON
Mon 07:53:00 AM 39.8722 -75.2409 150° Southeast  Level Estimated
Mon 07:53:16 AM 40.3500 -75.4500 169° South 203 234 5,000  Level Philadelphia TRACON
Mon 07:54:16 AM 40.3000 -75.4333 166° South 203 234 5,000 -200 Level Philadelphia TRACON
Mon 07:55:16 AM 40.2500 -75.4167 166° South 206 237 4,600 -500 Descending Philadelphia TRACON
Mon 07:56:16 AM 40.1833 -75.3833 159° South 230 265 4,000 -300 Descending Philadelphia TRACON
Mon 07:57:16 AM 40.1333 -75.3500 153° Southeast 210 242 4,000 -100 Level Philadelphia TRACON
Mon 07:58:16 AM 40.0667 -75.3333 169° South 207 238 3,800 -595 Descending Philadelphia TRACON
Mon 07:59:17 AM 40.0167 -75.3000 153° Southeast 158 182 2,800 -843 Descending Philadelphia TRACON
Mon 08:00:17 AM 39.9833 -75.2833 159° South 126 145 2,100 -650 Descending Philadelphia TRACON
Mon 08:01:17 AM 39.9667 -75.2667 143° Southeast 109 125 1,500 -600 Descending Philadelphia TRACON
Mon 08:02:17 AM 39.9333 -75.2667 180° South 110 127 900 -550 Descending Philadelphia TRACON
Mon 08:03:17 AM 39.9000 -75.2500 159° South 113 130 400 -500 Descending Philadelphia TRACON
Mon 08:05:00 AM 39.8667 -75.2333 150° Southeast  Level FlightAware Approximate
Mon 08:12:00 AM 39.8722 -75.2409 150° Southeast  Level Estimated

Login

Don't have an account? Register now (free) for customized features, flight alerts, and more!